sensor_id;sensor_type;location;lat;lon;timestamp;temperature;humidity
19168;DHT22;9716;53.114;18.040;2023-04-03T00:01:14;2.60;99.90
19168;DHT22;9716;53.114;18.040;2023-04-03T00:03:42;2.60;99.90
19168;DHT22;9716;53.114;18.040;2023-04-03T00:06:11;2.60;99.90
19168;DHT22;9716;53.114;18.040;2023-04-03T00:08:40;2.60;99.90
19168;DHT22;9716;53.114;18.040;2023-04-03T00:11:10;2.50;99.90
19168;DHT22;9716;53.114;18.040;2023-04-03T00:13:39;2.50;99.90
19168;DHT22;9716;53.114;18.040;2023-04-03T00:16:08;2.50;99.90
19168;DHT22;9716;53.114;18.040;2023-04-03T00:18:37;2.50;99.90
19168;DHT22;9716;53.114;18.040;2023-04-03T00:21:07;2.50;99.90
19168;DHT22;9716;53.114;18.040;2023-04-03T00:23:36;2.50;99.90
19168;DHT22;9716;53.114;18.040;2023-04-03T00:26:05;2.50;99.90
19168;DHT22;9716;53.114;18.040;2023-04-03T00:28:35;2.40;99.90
19168;DHT22;9716;53.114;18.040;2023-04-03T00:31:03;2.40;99.90
19168;DHT22;9716;53.114;18.040;2023-04-03T00:33:32;2.40;99.90
19168;DHT22;9716;53.114;18.040;2023-04-03T00:36:05;2.40;99.90
19168;DHT22;9716;53.114;18.040;2023-04-03T00:38:34;2.30;99.90
19168;DHT22;9716;53.114;18.040;2023-04-03T00:41:03;2.30;99.90
19168;DHT22;9716;53.114;18.040;2023-04-03T00:43:31;2.30;99.90
19168;DHT22;9716;53.114;18.040;2023-04-03T00:46:01;2.30;99.90
19168;DHT22;9716;53.114;18.040;2023-04-03T00:48:32;2.30;99.90
19168;DHT22;9716;53.114;18.040;2023-04-03T00:51:02;2.20;99.90
19168;DHT22;9716;53.114;18.040;2023-04-03T00:53:34;2.20;99.90
19168;DHT22;9716;53.114;18.040;2023-04-03T00:56:07;2.20;99.90
19168;DHT22;9716;53.114;18.040;2023-04-03T00:58:41;2.20;99.90
19168;DHT22;9716;53.114;18.040;2023-04-03T01:01:14;2.10;99.90
19168;DHT22;9716;53.114;18.040;2023-04-03T01:03:43;2.10;99.90
19168;DHT22;9716;53.114;18.040;2023-04-03T01:06:12;2.10;99.90
19168;DHT22;9716;53.114;18.040;2023-04-03T01:08:41;2.10;99.90
19168;DHT22;9716;53.114;18.040;2023-04-03T01:11:10;2.10;99.90
19168;DHT22;9716;53.114;18.040;2023-04-03T01:13:38;2.00;99.90
19168;DHT22;9716;53.114;18.040;2023-04-03T01:16:07;2.00;99.90
19168;DHT22;9716;53.114;18.040;2023-04-03T01:18:38;2.00;99.90
19168;DHT22;9716;53.114;18.040;2023-04-03T01:24:25;1.90;99.90
19168;DHT22;9716;53.114;18.040;2023-04-03T01:26:56;1.90;99.90
19168;DHT22;9716;53.114;18.040;2023-04-03T01:29:24;1.90;99.90
19168;DHT22;9716;53.114;18.040;2023-04-03T01:31:56;1.90;99.90
19168;DHT22;9716;53.114;18.040;2023-04-03T01:34:25;1.90;99.90
19168;DHT22;9716;53.114;18.040;2023-04-03T01:36:54;1.90;99.90
19168;DHT22;9716;53.114;18.040;2023-04-03T01:39:23;1.90;99.90
19168;DHT22;9716;53.114;18.040;2023-04-03T01:41:51;1.90;99.90
19168;DHT22;9716;53.114;18.040;2023-04-03T01:44:19;1.80;99.90
19168;DHT22;9716;53.114;18.040;2023-04-03T01:46:48;1.90;99.90
19168;DHT22;9716;53.114;18.040;2023-04-03T01:49:18;1.80;99.90
19168;DHT22;9716;53.114;18.040;2023-04-03T01:51:46;1.80;99.90
19168;DHT22;9716;53.114;18.040;2023-04-03T01:54:14;1.80;99.90
19168;DHT22;9716;53.114;18.040;2023-04-03T01:56:43;1.80;99.90
19168;DHT22;9716;53.114;18.040;2023-04-03T01:59:11;1.80;99.90
19168;DHT22;9716;53.114;18.040;2023-04-03T02:01:40;1.80;99.90
19168;DHT22;9716;53.114;18.040;2023-04-03T02:04:09;1.80;99.90
19168;DHT22;9716;53.114;18.040;2023-04-03T02:06:39;1.80;99.90
19168;DHT22;9716;53.114;18.040;2023-04-03T02:09:07;1.80;99.90
19168;DHT22;9716;53.114;18.040;2023-04-03T02:11:35;1.70;99.90
19168;DHT22;9716;53.114;18.040;2023-04-03T02:14:04;1.70;99.90
19168;DHT22;9716;53.114;18.040;2023-04-03T02:16:32;1.70;99.90
19168;DHT22;9716;53.114;18.040;2023-04-03T02:19:01;1.70;99.90
19168;DHT22;9716;53.114;18.040;2023-04-03T02:21:29;1.70;99.90
19168;DHT22;9716;53.114;18.040;2023-04-03T02:23:59;1.70;99.90
19168;DHT22;9716;53.114;18.040;2023-04-03T02:26:27;1.70;99.90
19168;DHT22;9716;53.114;18.040;2023-04-03T02:28:56;1.70;99.90
19168;DHT22;9716;53.114;18.040;2023-04-03T02:31:24;1.70;99.90
19168;DHT22;9716;53.114;18.040;2023-04-03T02:33:53;1.70;99.90
19168;DHT22;9716;53.114;18.040;2023-04-03T02:36:22;1.70;99.90
19168;DHT22;9716;53.114;18.040;2023-04-03T02:38:50;1.60;99.90
19168;DHT22;9716;53.114;18.040;2023-04-03T02:41:20;1.70;99.90
19168;DHT22;9716;53.114;18.040;2023-04-03T02:43:48;1.60;99.90
19168;DHT22;9716;53.114;18.040;2023-04-03T02:46:17;1.60;99.90
19168;DHT22;9716;53.114;18.040;2023-04-03T02:48:45;1.60;99.90
19168;DHT22;9716;53.114;18.040;2023-04-03T02:51:14;1.60;99.90
19168;DHT22;9716;53.114;18.040;2023-04-03T02:53:42;1.60;99.90
19168;DHT22;9716;53.114;18.040;2023-04-03T02:56:10;1.60;99.90
19168;DHT22;9716;53.114;18.040;2023-04-03T02:58:40;1.60;99.90
19168;DHT22;9716;53.114;18.040;2023-04-03T03:01:09;1.50;99.90
19168;DHT22;9716;53.114;18.040;2023-04-03T03:03:37;1.50;99.90
19168;DHT22;9716;53.114;18.040;2023-04-03T03:06:08;1.50;99.90
19168;DHT22;9716;53.114;18.040;2023-04-03T03:08:37;1.50;99.90
19168;DHT22;9716;53.114;18.040;2023-04-03T03:11:07;1.50;99.90
19168;DHT22;9716;53.114;18.040;2023-04-03T03:13:35;1.50;99.90
19168;DHT22;9716;53.114;18.040;2023-04-03T03:16:06;1.50;99.90
19168;DHT22;9716;53.114;18.040;2023-04-03T03:18:34;1.50;99.90
19168;DHT22;9716;53.114;18.040;2023-04-03T03:21:04;1.50;99.90
19168;DHT22;9716;53.114;18.040;2023-04-03T03:23:32;1.50;99.90
19168;DHT22;9716;53.114;18.040;2023-04-03T03:26:03;1.50;99.90
19168;DHT22;9716;53.114;18.040;2023-04-03T03:28:32;1.50;99.90
19168;DHT22;9716;53.114;18.040;2023-04-03T03:31:01;1.40;99.90
19168;DHT22;9716;53.114;18.040;2023-04-03T03:33:31;1.40;99.90
19168;DHT22;9716;53.114;18.040;2023-04-03T03:36:00;1.40;99.90
19168;DHT22;9716;53.114;18.040;2023-04-03T03:38:28;1.40;99.90
19168;DHT22;9716;53.114;18.040;2023-04-03T03:40:57;1.40;99.90
19168;DHT22;9716;53.114;18.040;2023-04-03T03:43:25;1.40;99.90
19168;DHT22;9716;53.114;18.040;2023-04-03T03:45:54;1.30;99.90
19168;DHT22;9716;53.114;18.040;2023-04-03T03:48:23;1.30;99.90
19168;DHT22;9716;53.114;18.040;2023-04-03T03:50:53;1.30;99.90
19168;DHT22;9716;53.114;18.040;2023-04-03T03:53:22;1.30;99.90
19168;DHT22;9716;53.114;18.040;2023-04-03T03:55:50;1.30;99.90
19168;DHT22;9716;53.114;18.040;2023-04-03T03:58:18;1.30;99.90
19168;DHT22;9716;53.114;18.040;2023-04-03T04:00:47;1.30;99.90
19168;DHT22;9716;53.114;18.040;2023-04-03T04:03:15;1.40;99.90
19168;DHT22;9716;53.114;18.040;2023-04-03T04:05:44;1.30;99.90
19168;DHT22;9716;53.114;18.040;2023-04-03T04:08:14;1.30;99.90
19168;DHT22;9716;53.114;18.040;2023-04-03T04:10:42;1.30;99.90
19168;DHT22;9716;53.114;18.040;2023-04-03T04:13:11;1.20;99.90
19168;DHT22;9716;53.114;18.040;2023-04-03T04:15:39;1.30;99.90
19168;DHT22;9716;53.114;18.040;2023-04-03T04:18:08;1.20;99.90
19168;DHT22;9716;53.114;18.040;2023-04-03T04:20:36;1.20;99.90
19168;DHT22;9716;53.114;18.040;2023-04-03T04:23:04;1.20;99.90
19168;DHT22;9716;53.114;18.040;2023-04-03T04:25:34;1.20;99.90
19168;DHT22;9716;53.114;18.040;2023-04-03T04:28:04;1.20;99.90
19168;DHT22;9716;53.114;18.040;2023-04-03T04:30:33;1.20;99.90
19168;DHT22;9716;53.114;18.040;2023-04-03T04:33:01;1.20;99.90
19168;DHT22;9716;53.114;18.040;2023-04-03T04:35:30;1.20;99.90
19168;DHT22;9716;53.114;18.040;2023-04-03T04:37:58;1.20;99.90
19168;DHT22;9716;53.114;18.040;2023-04-03T04:40:28;1.20;99.90
19168;DHT22;9716;53.114;18.040;2023-04-03T04:42:57;1.30;99.90
19168;DHT22;9716;53.114;18.040;2023-04-03T04:45:26;1.30;99.90
19168;DHT22;9716;53.114;18.040;2023-04-03T04:47:55;1.30;99.90
19168;DHT22;9716;53.114;18.040;2023-04-03T04:50:24;1.40;99.90
19168;DHT22;9716;53.114;18.040;2023-04-03T04:52:52;1.40;99.90
19168;DHT22;9716;53.114;18.040;2023-04-03T04:55:20;1.50;99.90
19168;DHT22;9716;53.114;18.040;2023-04-03T04:57:48;1.60;99.90
19168;DHT22;9716;53.114;18.040;2023-04-03T05:00:19;1.90;99.90
19168;DHT22;9716;53.114;18.040;2023-04-03T05:02:48;2.20;99.90
19168;DHT22;9716;53.114;18.040;2023-04-03T05:05:17;2.50;99.90
19168;DHT22;9716;53.114;18.040;2023-04-03T05:07:45;2.80;99.90
19168;DHT22;9716;53.114;18.040;2023-04-03T05:10:13;3.00;99.90
19168;DHT22;9716;53.114;18.040;2023-04-03T05:12:42;3.30;99.90
19168;DHT22;9716;53.114;18.040;2023-04-03T05:15:10;3.50;99.90
19168;DHT22;9716;53.114;18.040;2023-04-03T05:17:40;3.70;99.90
19168;DHT22;9716;53.114;18.040;2023-04-03T05:20:09;3.80;99.90
19168;DHT22;9716;53.114;18.040;2023-04-03T05:22:38;3.70;99.90
19168;DHT22;9716;53.114;18.040;2023-04-03T05:25:09;3.60;99.90
19168;DHT22;9716;53.114;18.040;2023-04-03T05:27:37;3.50;99.90
19168;DHT22;9716;53.114;18.040;2023-04-03T05:30:07;3.40;99.90
19168;DHT22;9716;53.114;18.040;2023-04-03T05:32:35;3.30;99.90
19168;DHT22;9716;53.114;18.040;2023-04-03T05:35:06;3.20;99.90
19168;DHT22;9716;53.114;18.040;2023-04-03T05:37:35;3.10;99.90
19168;DHT22;9716;53.114;18.040;2023-04-03T05:40:05;3.00;99.90
19168;DHT22;9716;53.114;18.040;2023-04-03T05:42:33;3.00;99.90
19168;DHT22;9716;53.114;18.040;2023-04-03T05:45:02;3.00;99.90
19168;DHT22;9716;53.114;18.040;2023-04-03T05:47:31;3.10;99.90
19168;DHT22;9716;53.114;18.040;2023-04-03T05:50:00;3.50;99.90
19168;DHT22;9716;53.114;18.040;2023-04-03T05:52:30;3.80;99.90
19168;DHT22;9716;53.114;18.040;2023-04-03T05:55:00;4.30;99.90
19168;DHT22;9716;53.114;18.040;2023-04-03T05:57:28;4.70;99.90
19168;DHT22;9716;53.114;18.040;2023-04-03T05:59:57;5.00;99.90
19168;DHT22;9716;53.114;18.040;2023-04-03T06:02:25;5.40;99.90
19168;DHT22;9716;53.114;18.040;2023-04-03T06:04:54;5.80;99.90
19168;DHT22;9716;53.114;18.040;2023-04-03T06:07:24;6.20;99.90
19168;DHT22;9716;53.114;18.040;2023-04-03T06:09:57;6.40;99.90
19168;DHT22;9716;53.114;18.040;2023-04-03T06:12:26;6.70;99.90
19168;DHT22;9716;53.114;18.040;2023-04-03T06:14:56;6.90;99.90
19168;DHT22;9716;53.114;18.040;2023-04-03T06:17:25;7.20;99.90
19168;DHT22;9716;53.114;18.040;2023-04-03T06:19:54;7.50;99.90
19168;DHT22;9716;53.114;18.040;2023-04-03T06:22:22;7.40;99.90
19168;DHT22;9716;53.114;18.040;2023-04-03T06:24:52;7.10;99.90
19168;DHT22;9716;53.114;18.040;2023-04-03T06:27:23;7.00;99.90
19168;DHT22;9716;53.114;18.040;2023-04-03T06:29:52;7.00;99.90
19168;DHT22;9716;53.114;18.040;2023-04-03T06:32:20;7.10;99.90
19168;DHT22;9716;53.114;18.040;2023-04-03T06:34:49;7.20;99.90
19168;DHT22;9716;53.114;18.040;2023-04-03T06:37:19;7.30;99.90
19168;DHT22;9716;53.114;18.040;2023-04-03T06:39:48;7.30;99.90
19168;DHT22;9716;53.114;18.040;2023-04-03T06:42:16;7.00;99.80
19168;DHT22;9716;53.114;18.040;2023-04-03T06:44:47;7.00;99.90
19168;DHT22;9716;53.114;18.040;2023-04-03T06:47:16;7.20;99.90
19168;DHT22;9716;53.114;18.040;2023-04-03T06:49:45;7.40;99.90
19168;DHT22;9716;53.114;18.040;2023-04-03T06:52:14;7.70;99.40
19168;DHT22;9716;53.114;18.040;2023-04-03T06:54:43;7.90;98.40
19168;DHT22;9716;53.114;18.040;2023-04-03T06:57:14;7.90;97.80
19168;DHT22;9716;53.114;18.040;2023-04-03T06:59:42;7.80;97.00
19168;DHT22;9716;53.114;18.040;2023-04-03T07:02:13;7.50;96.50
19168;DHT22;9716;53.114;18.040;2023-04-03T07:04:42;7.10;96.40
19168;DHT22;9716;53.114;18.040;2023-04-03T07:07:10;6.80;96.60
19168;DHT22;9716;53.114;18.040;2023-04-03T07:09:39;6.50;96.90
19168;DHT22;9716;53.114;18.040;2023-04-03T07:12:11;6.30;97.10
19168;DHT22;9716;53.114;18.040;2023-04-03T07:14:39;6.20;97.20
19168;DHT22;9716;53.114;18.040;2023-04-03T07:17:08;6.10;97.00
19168;DHT22;9716;53.114;18.040;2023-04-03T07:19:39;5.90;97.40
19168;DHT22;9716;53.114;18.040;2023-04-03T07:22:08;5.80;97.30
19168;DHT22;9716;53.114;18.040;2023-04-03T07:24:38;5.70;97.30
19168;DHT22;9716;53.114;18.040;2023-04-03T07:27:06;5.50;97.20
19168;DHT22;9716;53.114;18.040;2023-04-03T07:29:36;5.40;97.40
19168;DHT22;9716;53.114;18.040;2023-04-03T07:32:05;5.30;97.60
19168;DHT22;9716;53.114;18.040;2023-04-03T07:34:34;5.20;97.80
19168;DHT22;9716;53.114;18.040;2023-04-03T07:37:04;5.20;97.90
19168;DHT22;9716;53.114;18.040;2023-04-03T07:39:33;5.20;98.00
19168;DHT22;9716;53.114;18.040;2023-04-03T07:42:02;5.10;98.10
19168;DHT22;9716;53.114;18.040;2023-04-03T07:44:30;5.20;98.20
19168;DHT22;9716;53.114;18.040;2023-04-03T07:46:59;5.30;97.80
19168;DHT22;9716;53.114;18.040;2023-04-03T07:49:28;5.20;97.00
19168;DHT22;9716;53.114;18.040;2023-04-03T07:51:57;5.10;96.50
19168;DHT22;9716;53.114;18.040;2023-04-03T07:54:27;4.90;95.60
19168;DHT22;9716;53.114;18.040;2023-04-03T07:56:55;4.80;95.30
19168;DHT22;9716;53.114;18.040;2023-04-03T07:59:24;4.70;95.20
19168;DHT22;9716;53.114;18.040;2023-04-03T08:01:53;4.90;95.20
19168;DHT22;9716;53.114;18.040;2023-04-03T08:04:22;5.40;94.90
19168;DHT22;9716;53.114;18.040;2023-04-03T08:06:51;5.90;94.10
19168;DHT22;9716;53.114;18.040;2023-04-03T08:09:20;6.10;93.20
19168;DHT22;9716;53.114;18.040;2023-04-03T08:11:50;6.40;92.30
19168;DHT22;9716;53.114;18.040;2023-04-03T08:14:20;6.70;91.00
19168;DHT22;9716;53.114;18.040;2023-04-03T08:16:49;6.90;90.00
19168;DHT22;9716;53.114;18.040;2023-04-03T08:19:18;7.10;90.00
19168;DHT22;9716;53.114;18.040;2023-04-03T08:21:53;7.50;88.80
19168;DHT22;9716;53.114;18.040;2023-04-03T08:24:22;7.90;89.00
19168;DHT22;9716;53.114;18.040;2023-04-03T08:26:52;8.40;87.00
19168;DHT22;9716;53.114;18.040;2023-04-03T08:29:21;8.70;85.70
19168;DHT22;9716;53.114;18.040;2023-04-03T08:31:49;9.00;84.20
19168;DHT22;9716;53.114;18.040;2023-04-03T08:34:19;9.00;83.10
19168;DHT22;9716;53.114;18.040;2023-04-03T08:36:47;9.10;82.80
19168;DHT22;9716;53.114;18.040;2023-04-03T08:39:16;9.30;82.20
19168;DHT22;9716;53.114;18.040;2023-04-03T08:41:45;9.30;81.30
19168;DHT22;9716;53.114;18.040;2023-04-03T08:44:23;9.50;81.40
19168;DHT22;9716;53.114;18.040;2023-04-03T08:47:02;9.70;79.80
19168;DHT22;9716;53.114;18.040;2023-04-03T08:49:34;9.80;79.40
19168;DHT22;9716;53.114;18.040;2023-04-03T08:52:08;9.80;78.80
19168;DHT22;9716;53.114;18.040;2023-04-03T08:54:49;9.70;77.80
19168;DHT22;9716;53.114;18.040;2023-04-03T08:57:22;9.50;76.50
19168;DHT22;9716;53.114;18.040;2023-04-03T08:59:57;9.20;76.50
19168;DHT22;9716;53.114;18.040;2023-04-03T09:02:31;8.90;76.70
19168;DHT22;9716;53.114;18.040;2023-04-03T09:05:05;8.90;76.90
19168;DHT22;9716;53.114;18.040;2023-04-03T09:07:42;8.90;76.50
19168;DHT22;9716;53.114;18.040;2023-04-03T09:10:21;8.90;76.50
19168;DHT22;9716;53.114;18.040;2023-04-03T09:12:59;9.00;76.20
19168;DHT22;9716;53.114;18.040;2023-04-03T09:15:30;9.10;75.20
19168;DHT22;9716;53.114;18.040;2023-04-03T09:18:12;9.20;75.10
19168;DHT22;9716;53.114;18.040;2023-04-03T09:20:46;9.20;74.70
19168;DHT22;9716;53.114;18.040;2023-04-03T09:23:26;8.90;74.70
19168;DHT22;9716;53.114;18.040;2023-04-03T09:26:02;8.60;75.20
19168;DHT22;9716;53.114;18.040;2023-04-03T09:28:34;8.20;75.60
19168;DHT22;9716;53.114;18.040;2023-04-03T09:31:20;7.90;76.60
19168;DHT22;9716;53.114;18.040;2023-04-03T09:33:51;7.70;77.40
19168;DHT22;9716;53.114;18.040;2023-04-03T09:36:41;7.50;77.30
19168;DHT22;9716;53.114;18.040;2023-04-03T09:39:13;7.30;77.00
19168;DHT22;9716;53.114;18.040;2023-04-03T09:41:56;7.10;77.00
19168;DHT22;9716;53.114;18.040;2023-04-03T09:44:26;6.80;77.30
19168;DHT22;9716;53.114;18.040;2023-04-03T09:46:56;6.60;77.60
19168;DHT22;9716;53.114;18.040;2023-04-03T09:49:25;6.50;77.90
19168;DHT22;9716;53.114;18.040;2023-04-03T09:51:54;6.40;78.10
19168;DHT22;9716;53.114;18.040;2023-04-03T09:54:35;6.40;78.00
19168;DHT22;9716;53.114;18.040;2023-04-03T09:57:09;6.20;77.90
19168;DHT22;9716;53.114;18.040;2023-04-03T09:59:44;6.10;78.40
19168;DHT22;9716;53.114;18.040;2023-04-03T10:02:35;6.10;78.90
19168;DHT22;9716;53.114;18.040;2023-04-03T10:05:04;6.10;78.90
19168;DHT22;9716;53.114;18.040;2023-04-03T10:07:52;6.20;79.00
19168;DHT22;9716;53.114;18.040;2023-04-03T10:10:30;6.40;78.70
19168;DHT22;9716;53.114;18.040;2023-04-03T10:13:04;6.50;78.70
19168;DHT22;9716;53.114;18.040;2023-04-03T10:15:40;6.70;78.30
19168;DHT22;9716;53.114;18.040;2023-04-03T10:18:28;6.80;78.00
19168;DHT22;9716;53.114;18.040;2023-04-03T10:21:02;6.90;77.20
19168;DHT22;9716;53.114;18.040;2023-04-03T10:23:43;6.80;77.50
19168;DHT22;9716;53.114;18.040;2023-04-03T10:26:17;6.90;77.90
19168;DHT22;9716;53.114;18.040;2023-04-03T10:28:55;6.90;77.40
19168;DHT22;9716;53.114;18.040;2023-04-03T10:31:31;6.90;78.40
19168;DHT22;9716;53.114;18.040;2023-04-03T10:34:06;6.80;77.50
19168;DHT22;9716;53.114;18.040;2023-04-03T10:36:47;6.70;77.70
19168;DHT22;9716;53.114;18.040;2023-04-03T10:39:23;6.60;77.70
19168;DHT22;9716;53.114;18.040;2023-04-03T10:42:03;6.50;77.30
19168;DHT22;9716;53.114;18.040;2023-04-03T10:44:56;6.40;77.10
19168;DHT22;9716;53.114;18.040;2023-04-03T10:47:34;6.30;76.70
19168;DHT22;9716;53.114;18.040;2023-04-03T10:50:22;6.30;77.20
19168;DHT22;9716;53.114;18.040;2023-04-03T10:53:01;6.40;77.90
19168;DHT22;9716;53.114;18.040;2023-04-03T10:55:36;6.60;77.70
19168;DHT22;9716;53.114;18.040;2023-04-03T10:58:06;6.80;76.60
19168;DHT22;9716;53.114;18.040;2023-04-03T11:00:41;6.70;76.00
19168;DHT22;9716;53.114;18.040;2023-04-03T11:03:14;6.60;75.60
19168;DHT22;9716;53.114;18.040;2023-04-03T11:05:48;6.60;76.20
19168;DHT22;9716;53.114;18.040;2023-04-03T11:08:26;6.60;76.40
19168;DHT22;9716;53.114;18.040;2023-04-03T11:11:00;6.60;75.90
19168;DHT22;9716;53.114;18.040;2023-04-03T11:13:34;6.70;75.90
19168;DHT22;9716;53.114;18.040;2023-04-03T11:16:04;6.80;76.00
19168;DHT22;9716;53.114;18.040;2023-04-03T11:18:37;6.90;76.30
19168;DHT22;9716;53.114;18.040;2023-04-03T11:21:13;6.90;76.30
19168;DHT22;9716;53.114;18.040;2023-04-03T11:23:44;6.90;76.40
19168;DHT22;9716;53.114;18.040;2023-04-03T11:26:19;6.80;76.60
19168;DHT22;9716;53.114;18.040;2023-04-03T11:28:53;6.80;76.60
19168;DHT22;9716;53.114;18.040;2023-04-03T11:31:42;6.70;76.40
19168;DHT22;9716;53.114;18.040;2023-04-03T11:34:26;6.70;76.00
19168;DHT22;9716;53.114;18.040;2023-04-03T11:37:11;6.70;75.70
19168;DHT22;9716;53.114;18.040;2023-04-03T11:39:48;6.70;75.10
19168;DHT22;9716;53.114;18.040;2023-04-03T11:42:33;6.70;74.70
19168;DHT22;9716;53.114;18.040;2023-04-03T11:45:26;6.70;74.60
19168;DHT22;9716;53.114;18.040;2023-04-03T11:47:57;6.60;74.70
19168;DHT22;9716;53.114;18.040;2023-04-03T11:50:42;6.60;74.90
19168;DHT22;9716;53.114;18.040;2023-04-03T11:53:35;6.70;75.10
19168;DHT22;9716;53.114;18.040;2023-04-03T11:59:22;7.00;74.70
19168;DHT22;9716;53.114;18.040;2023-04-03T12:01:52;7.10;74.00
19168;DHT22;9716;53.114;18.040;2023-04-03T12:04:23;7.10;73.80
19168;DHT22;9716;53.114;18.040;2023-04-03T12:07:13;7.20;73.90
19168;DHT22;9716;53.114;18.040;2023-04-03T12:10:13;7.30;73.60
19168;DHT22;9716;53.114;18.040;2023-04-03T12:12:58;7.10;73.20
19168;DHT22;9716;53.114;18.040;2023-04-03T12:15:51;7.00;72.70
19168;DHT22;9716;53.114;18.040;2023-04-03T12:18:55;7.00;73.30
19168;DHT22;9716;53.114;18.040;2023-04-03T12:24:34;7.10;74.10
19168;DHT22;9716;53.114;18.040;2023-04-03T12:27:17;7.10;74.40
19168;DHT22;9716;53.114;18.040;2023-04-03T12:29:50;7.10;74.60
19168;DHT22;9716;53.114;18.040;2023-04-03T12:32:36;7.00;75.00
19168;DHT22;9716;53.114;18.040;2023-04-03T12:35:19;7.00;75.40
19168;DHT22;9716;53.114;18.040;2023-04-03T12:41:19;6.90;75.00
19168;DHT22;9716;53.114;18.040;2023-04-03T12:46:53;6.90;75.50
19168;DHT22;9716;53.114;18.040;2023-04-03T12:49:38;6.80;76.00
19168;DHT22;9716;53.114;18.040;2023-04-03T12:52:19;6.70;76.50
19168;DHT22;9716;53.114;18.040;2023-04-03T12:54:51;6.80;77.70
19168;DHT22;9716;53.114;18.040;2023-04-03T12:57:23;6.80;76.60
19168;DHT22;9716;53.114;18.040;2023-04-03T12:59:52;6.80;76.70
19168;DHT22;9716;53.114;18.040;2023-04-03T13:02:26;6.90;76.70
19168;DHT22;9716;53.114;18.040;2023-04-03T13:04:57;6.80;76.60
19168;DHT22;9716;53.114;18.040;2023-04-03T13:07:28;6.80;76.40
19168;DHT22;9716;53.114;18.040;2023-04-03T13:10:03;6.90;75.90
19168;DHT22;9716;53.114;18.040;2023-04-03T13:12:32;6.90;75.30
19168;DHT22;9716;53.114;18.040;2023-04-03T13:15:12;7.00;74.70
19168;DHT22;9716;53.114;18.040;2023-04-03T13:17:42;7.00;74.70
19168;DHT22;9716;53.114;18.040;2023-04-03T13:20:15;7.00;74.80
19168;DHT22;9716;53.114;18.040;2023-04-03T13:22:49;7.10;74.80
19168;DHT22;9716;53.114;18.040;2023-04-03T13:25:21;7.10;74.60
19168;DHT22;9716;53.114;18.040;2023-04-03T13:27:50;7.10;74.60
19168;DHT22;9716;53.114;18.040;2023-04-03T13:30:37;7.10;74.60
19168;DHT22;9716;53.114;18.040;2023-04-03T13:33:20;7.30;74.60
19168;DHT22;9716;53.114;18.040;2023-04-03T13:35:55;7.20;74.60
19168;DHT22;9716;53.114;18.040;2023-04-03T13:38:28;7.30;74.80
19168;DHT22;9716;53.114;18.040;2023-04-03T13:41:01;7.20;74.70
19168;DHT22;9716;53.114;18.040;2023-04-03T13:43:37;7.10;75.00
19168;DHT22;9716;53.114;18.040;2023-04-03T13:46:24;7.00;75.30
19168;DHT22;9716;53.114;18.040;2023-04-03T13:48:56;6.90;75.70
19168;DHT22;9716;53.114;18.040;2023-04-03T13:51:26;6.90;76.00
19168;DHT22;9716;53.114;18.040;2023-04-03T13:53:57;6.90;76.10
19168;DHT22;9716;53.114;18.040;2023-04-03T13:56:30;7.00;76.20
19168;DHT22;9716;53.114;18.040;2023-04-03T13:59:19;7.10;76.60
19168;DHT22;9716;53.114;18.040;2023-04-03T14:01:53;7.10;77.20
19168;DHT22;9716;53.114;18.040;2023-04-03T14:04:26;7.10;77.30
19168;DHT22;9716;53.114;18.040;2023-04-03T14:06:55;7.10;76.60
19168;DHT22;9716;53.114;18.040;2023-04-03T14:09:26;7.10;76.30
19168;DHT22;9716;53.114;18.040;2023-04-03T14:11:57;7.10;77.00
19168;DHT22;9716;53.114;18.040;2023-04-03T14:14:30;7.10;77.30
19168;DHT22;9716;53.114;18.040;2023-04-03T14:17:03;7.20;77.60
19168;DHT22;9716;53.114;18.040;2023-04-03T14:19:34;7.30;77.90
19168;DHT22;9716;53.114;18.040;2023-04-03T14:22:13;7.50;77.80
19168;DHT22;9716;53.114;18.040;2023-04-03T14:24:42;7.70;77.40
19168;DHT22;9716;53.114;18.040;2023-04-03T14:27:17;7.90;76.70
19168;DHT22;9716;53.114;18.040;2023-04-03T14:29:47;7.90;76.50
19168;DHT22;9716;53.114;18.040;2023-04-03T14:32:17;8.00;76.80
19168;DHT22;9716;53.114;18.040;2023-04-03T14:34:48;7.90;77.10
19168;DHT22;9716;53.114;18.040;2023-04-03T14:37:21;7.80;77.70
19168;DHT22;9716;53.114;18.040;2023-04-03T14:39:50;7.80;78.30
19168;DHT22;9716;53.114;18.040;2023-04-03T14:42:22;7.70;78.10
19168;DHT22;9716;53.114;18.040;2023-04-03T14:44:51;7.60;77.90
19168;DHT22;9716;53.114;18.040;2023-04-03T14:47:23;7.50;77.90
19168;DHT22;9716;53.114;18.040;2023-04-03T14:50:00;7.40;77.80
19168;DHT22;9716;53.114;18.040;2023-04-03T14:52:31;7.30;77.40
19168;DHT22;9716;53.114;18.040;2023-04-03T14:55:00;7.10;77.40
19168;DHT22;9716;53.114;18.040;2023-04-03T14:57:30;7.00;77.80
19168;DHT22;9716;53.114;18.040;2023-04-03T14:59:59;7.10;78.20
19168;DHT22;9716;53.114;18.040;2023-04-03T15:02:31;7.00;78.50
19168;DHT22;9716;53.114;18.040;2023-04-03T15:05:05;7.10;78.70
19168;DHT22;9716;53.114;18.040;2023-04-03T15:07:35;7.10;78.30
19168;DHT22;9716;53.114;18.040;2023-04-03T15:10:15;7.20;77.90
19168;DHT22;9716;53.114;18.040;2023-04-03T15:12:44;7.20;77.60
19168;DHT22;9716;53.114;18.040;2023-04-03T15:15:14;7.10;77.40
19168;DHT22;9716;53.114;18.040;2023-04-03T15:17:43;7.10;77.40
19168;DHT22;9716;53.114;18.040;2023-04-03T15:20:15;7.00;77.30
19168;DHT22;9716;53.114;18.040;2023-04-03T15:22:44;6.90;77.50
19168;DHT22;9716;53.114;18.040;2023-04-03T15:25:13;6.90;77.80
19168;DHT22;9716;53.114;18.040;2023-04-03T15:27:41;6.80;78.10
19168;DHT22;9716;53.114;18.040;2023-04-03T15:30:14;6.80;78.40
19168;DHT22;9716;53.114;18.040;2023-04-03T15:32:43;6.70;77.90
19168;DHT22;9716;53.114;18.040;2023-04-03T15:35:11;6.60;78.20
19168;DHT22;9716;53.114;18.040;2023-04-03T15:37:43;6.60;78.60
19168;DHT22;9716;53.114;18.040;2023-04-03T15:40:11;6.60;78.90
19168;DHT22;9716;53.114;18.040;2023-04-03T15:42:40;6.60;78.90
19168;DHT22;9716;53.114;18.040;2023-04-03T15:45:09;6.60;78.70
19168;DHT22;9716;53.114;18.040;2023-04-03T15:47:38;6.60;78.40
19168;DHT22;9716;53.114;18.040;2023-04-03T15:50:08;6.60;77.90
19168;DHT22;9716;53.114;18.040;2023-04-03T15:52:37;6.60;77.70
19168;DHT22;9716;53.114;18.040;2023-04-03T15:55:07;6.60;77.80
19168;DHT22;9716;53.114;18.040;2023-04-03T15:57:36;6.50;78.00
19168;DHT22;9716;53.114;18.040;2023-04-03T16:00:10;6.50;78.30
19168;DHT22;9716;53.114;18.040;2023-04-03T16:02:39;6.40;78.40
19168;DHT22;9716;53.114;18.040;2023-04-03T16:05:09;6.30;78.30
19168;DHT22;9716;53.114;18.040;2023-04-03T16:07:39;6.20;78.50
19168;DHT22;9716;53.114;18.040;2023-04-03T16:10:12;6.10;78.60
19168;DHT22;9716;53.114;18.040;2023-04-03T16:12:41;6.10;78.50
19168;DHT22;9716;53.114;18.040;2023-04-03T16:15:10;6.00;78.80
19168;DHT22;9716;53.114;18.040;2023-04-03T16:17:39;6.00;79.20
19168;DHT22;9716;53.114;18.040;2023-04-03T16:20:10;5.90;79.30
19168;DHT22;9716;53.114;18.040;2023-04-03T16:22:40;5.90;79.60
19168;DHT22;9716;53.114;18.040;2023-04-03T16:25:11;5.90;79.60
19168;DHT22;9716;53.114;18.040;2023-04-03T16:27:40;5.90;79.60
19168;DHT22;9716;53.114;18.040;2023-04-03T16:30:09;5.90;79.70